Time;durP1;ratioP1;P1;durP2;ratioP2;P2;SDS_P1;SDS_P2;PMS_P1;PMS_P2;Temp;Humidity;BMP_temperature;BMP_pressure;BME280_temperature;BME280_humidity;BME280_pressure;Samples;Min_cycle;Max_cycle;Signal;HPM_P1;HPM_P2
2023/12/17 00:02:24;;;;;;;10.48;4.63;;;9.60;99.90;;;;;;5016357;28;20045;-61
2023/12/17 00:04:49;;;;;;;10.60;4.82;;;9.70;99.90;;;;;;5016223;28;20060;-61
2023/12/17 00:07:15;;;;;;;10.70;4.65;;;9.70;99.90;;;;;;5033575;28;20056;-61
2023/12/17 00:09:40;;;;;;;9.43;4.47;;;9.70;99.90;;;;;;5036241;28;20052;-61
2023/12/17 00:12:06;;;;;;;11.70;4.93;;;9.70;99.90;;;;;;5053283;28;20049;-61
2023/12/17 00:14:32;;;;;;;12.30;5.07;;;9.70;99.90;;;;;;5018307;28;20041;-61
2023/12/17 00:16:57;;;;;;;10.65;4.50;;;9.70;99.90;;;;;;5053276;28;20037;-61
2023/12/17 00:19:23;;;;;;;16.33;5.13;;;9.70;99.90;;;;;;5035576;28;20052;-61
2023/12/17 00:21:49;;;;;;;13.40;4.07;;;9.70;99.90;;;;;;5034940;28;20033;-61
2023/12/17 00:24:14;;;;;;;10.23;4.88;;;9.80;99.90;;;;;;5035757;28;20051;-61
2023/12/17 00:26:40;;;;;;;8.55;3.97;;;9.80;99.90;;;;;;5020052;28;20049;-61
2023/12/17 00:29:06;;;;;;;13.27;4.50;;;9.70;99.90;;;;;;5032351;28;20413;-61
2023/12/17 00:31:31;;;;;;;7.32;3.80;;;9.80;99.90;;;;;;5031914;28;20041;-61
2023/12/17 00:33:57;;;;;;;12.35;4.60;;;9.80;99.90;;;;;;5034876;28;20045;-61
2023/12/17 00:36:23;;;;;;;10.48;4.43;;;9.80;99.90;;;;;;5052340;28;20076;-61
2023/12/17 00:38:48;;;;;;;14.48;4.97;;;9.80;99.90;;;;;;5052144;28;20540;-61
2023/12/17 00:41:14;;;;;;;9.65;5.18;;;9.80;99.90;;;;;;5034815;28;20448;-61
2023/12/17 00:43:39;;;;;;;9.98;4.18;;;9.80;99.90;;;;;;5035817;28;20053;-61
2023/12/17 00:46:05;;;;;;;10.98;4.43;;;9.80;99.90;;;;;;5051835;28;20037;-60
2023/12/17 00:48:31;;;;;;;11.70;4.72;;;9.70;99.90;;;;;;5033511;28;20045;-61
2023/12/17 00:50:57;;;;;;;11.45;4.32;;;9.80;99.90;;;;;;5052195;28;20113;-61
2023/12/17 00:53:22;;;;;;;10.38;5.35;;;9.80;99.90;;;;;;5051557;28;20057;-61
2023/12/17 00:55:48;;;;;;;9.98;4.32;;;9.80;99.90;;;;;;5034293;28;20044;-61
2023/12/17 00:58:14;;;;;;;10.88;4.22;;;9.70;99.90;;;;;;5051815;28;20152;-61
2023/12/17 01:00:39;;;;;;;11.13;4.53;;;9.80;99.90;;;;;;5038686;28;20044;-61
2023/12/17 01:03:05;;;;;;;12.32;4.45;;;9.80;99.90;;;;;;5018204;28;20086;-61
2023/12/17 01:05:33;;;;;;;14.32;4.50;;;9.80;99.90;;;;;;5051368;28;20086;-61
2023/12/17 01:07:59;;;;;;;13.20;4.53;;;9.70;99.90;;;;;;5035604;28;20450;-61
2023/12/17 01:10:24;;;;;;;10.77;4.20;;;9.80;99.90;;;;;;5051231;28;20047;-61
2023/12/17 01:12:50;;;;;;;12.30;3.78;;;9.80;99.90;;;;;;5051709;28;20041;-61
2023/12/17 01:15:16;;;;;;;10.48;4.38;;;9.80;99.90;;;;;;5018342;28;20077;-61
2023/12/17 01:17:42;;;;;;;11.70;4.43;;;9.80;99.90;;;;;;5034236;28;20041;-61
2023/12/17 01:20:08;;;;;;;8.88;4.30;;;9.80;99.90;;;;;;5034721;28;20397;-61
2023/12/17 01:22:34;;;;;;;9.05;4.70;;;9.80;99.90;;;;;;5034974;28;20147;-61
2023/12/17 01:24:59;;;;;;;9.20;4.45;;;9.80;99.90;;;;;;5044883;28;20064;-61
2023/12/17 01:27:25;;;;;;;7.93;4.05;;;9.80;99.90;;;;;;5018066;28;20406;-61
2023/12/17 01:29:51;;;;;;;8.95;4.10;;;9.80;99.90;;;;;;5051817;28;20075;-61
2023/12/17 01:32:16;;;;;;;10.48;3.60;;;9.80;99.90;;;;;;5034383;28;20045;-61
2023/12/17 01:34:42;;;;;;;10.55;4.10;;;9.80;99.90;;;;;;5039201;28;20029;-61
2023/12/17 01:37:07;;;;;;;9.73;3.78;;;9.80;99.90;;;;;;5014138;28;20120;-61
2023/12/17 01:39:33;;;;;;;10.05;4.78;;;9.80;99.90;;;;;;4998068;28;20151;-61
2023/12/17 01:41:59;;;;;;;12.75;5.03;;;9.70;99.90;;;;;;5014918;28;20037;-61
2023/12/17 01:44:25;;;;;;;11.35;3.88;;;9.70;99.90;;;;;;5018201;28;20037;-61
2023/12/17 01:46:50;;;;;;;9.48;4.63;;;9.70;99.90;;;;;;5051301;28;20131;-61
2023/12/17 01:49:16;;;;;;;12.73;4.32;;;9.70;99.90;;;;;;5034592;28;20494;-61
2023/12/17 01:51:42;;;;;;;14.07;4.85;;;9.70;99.90;;;;;;5051787;28;20033;-61
2023/12/17 01:54:08;;;;;;;9.43;3.50;;;9.70;99.90;;;;;;5051767;28;20052;-61
2023/12/17 01:56:34;;;;;;;10.07;3.95;;;9.70;99.90;;;;;;5034370;28;20041;-62
2023/12/17 01:59:02;;;;;;;9.70;3.38;;;9.70;99.90;;;;;;5018027;28;20513;-61
2023/12/17 02:01:28;;;;;;;9.43;4.88;;;9.70;99.90;;;;;;4998232;28;20152;-61
2023/12/17 02:03:54;;;;;;;7.40;4.40;;;9.70;99.90;;;;;;5014420;28;20087;-61
2023/12/17 02:06:20;;;;;;;10.43;4.10;;;9.70;99.90;;;;;;5013793;28;20053;-62
2023/12/17 02:08:46;;;;;;;9.82;4.20;;;9.70;99.90;;;;;;5014661;28;20048;-61
2023/12/17 02:11:11;;;;;;;8.05;3.55;;;9.60;99.90;;;;;;5030748;28;20495;-61
2023/12/17 02:13:37;;;;;;;12.13;4.70;;;9.70;99.90;;;;;;5031063;28;20041;-61
2023/12/17 02:16:03;;;;;;;13.38;5.07;;;9.70;99.90;;;;;;5031704;28;20120;-61
2023/12/17 02:18:29;;;;;;;9.20;4.15;;;9.70;99.90;;;;;;5050679;28;20449;-61
2023/12/17 02:20:55;;;;;;;10.63;5.00;;;9.70;99.90;;;;;;5033166;28;20044;-61
2023/12/17 02:23:21;;;;;;;18.85;4.57;;;9.70;99.90;;;;;;5033921;28;20072;-61
2023/12/17 02:25:47;;;;;;;9.23;4.28;;;9.60;99.90;;;;;;5033917;28;20037;-61
2023/12/17 02:28:13;;;;;;;9.25;4.15;;;9.60;99.90;;;;;;5051049;28;20041;-61
2023/12/17 02:30:38;;;;;;;9.90;4.93;;;9.60;99.90;;;;;;5017183;28;20390;-61
2023/12/17 02:33:04;;;;;;;10.10;4.15;;;9.60;99.90;;;;;;5034198;28;20090;-61
2023/12/17 02:35:29;;;;;;;7.50;4.10;;;9.60;99.90;;;;;;5020572;28;20460;-61
2023/12/17 02:37:55;;;;;;;9.93;4.43;;;9.50;99.90;;;;;;5030492;28;20040;-61
2023/12/17 02:40:21;;;;;;;9.98;4.68;;;9.50;99.90;;;;;;5031997;28;20048;-61
2023/12/17 02:42:46;;;;;;;8.57;4.38;;;9.50;99.90;;;;;;5033431;28;20090;-61
2023/12/17 02:45:12;;;;;;;15.98;4.70;;;9.50;99.90;;;;;;5050327;28;20045;-61
2023/12/17 02:47:38;;;;;;;9.05;4.50;;;9.50;99.90;;;;;;5049587;28;20051;-61
2023/12/17 02:50:04;;;;;;;8.90;4.53;;;9.50;99.90;;;;;;5040507;28;20049;-61
2023/12/17 02:52:30;;;;;;;10.95;4.53;;;9.50;99.90;;;;;;5023390;28;20049;-61
2023/12/17 02:54:55;;;;;;;13.10;4.72;;;9.50;99.90;;;;;;5053344;28;20409;-62
2023/12/17 02:57:25;;;;;;;9.57;4.05;;;9.50;99.90;;;;;;5045666;28;20486;-61
2023/12/17 02:59:54;;;;;;;8.73;4.00;;;9.50;99.90;;;;;;5037458;28;20044;-61
2023/12/17 03:02:20;;;;;;;7.18;3.88;;;9.50;99.90;;;;;;5030560;28;20386;-61
2023/12/17 03:04:46;;;;;;;8.40;4.65;;;9.50;99.90;;;;;;5029391;28;20045;-61
2023/12/17 03:07:12;;;;;;;10.50;5.53;;;9.40;99.90;;;;;;5020792;28;20044;-61
2023/12/17 03:09:37;;;;;;;8.52;4.35;;;9.40;99.90;;;;;;5036441;28;20123;-61
2023/12/17 03:12:03;;;;;;;10.65;4.35;;;9.40;99.90;;;;;;5053910;28;20102;-61
2023/12/17 03:14:31;;;;;;;11.07;4.47;;;9.40;99.90;;;;;;5036660;28;20086;-61
2023/12/17 03:16:57;;;;;;;11.77;4.60;;;9.40;99.90;;;;;;5036918;28;20429;-62
2023/12/17 03:19:23;;;;;;;8.65;3.97;;;9.40;99.90;;;;;;5016604;28;20474;-61
2023/12/17 03:21:49;;;;;;;9.98;3.85;;;9.40;99.90;;;;;;5017841;28;20029;-61
2023/12/17 03:24:14;;;;;;;9.00;4.05;;;9.40;99.90;;;;;;5028477;28;20076;-61
2023/12/17 03:26:40;;;;;;;10.02;4.05;;;9.40;99.90;;;;;;5037125;28;20037;-61
2023/12/17 03:29:06;;;;;;;10.32;4.53;;;9.40;99.90;;;;;;5055100;28;20470;-62
2023/12/17 03:31:31;;;;;;;14.82;5.28;;;9.40;99.90;;;;;;5052524;28;20116;-61
2023/12/17 03:33:57;;;;;;;11.30;4.22;;;9.40;99.90;;;;;;5036963;28;20102;-61
2023/12/17 03:36:23;;;;;;;16.65;4.93;;;9.40;99.90;;;;;;5053059;28;20079;-62
2023/12/17 03:38:48;;;;;;;10.85;4.22;;;9.40;99.90;;;;;;5036109;28;20112;-61
2023/12/17 03:41:21;;;;;;;8.80;5.10;;;9.40;99.90;;;;;;5033476;28;20040;-61
2023/12/17 03:43:49;;;;;;;14.90;4.40;;;9.40;99.90;;;;;;4999646;28;20037;-61
2023/12/17 03:46:14;;;;;;;12.65;5.05;;;9.40;99.90;;;;;;5016924;28;20489;-61
2023/12/17 03:48:40;;;;;;;10.80;4.40;;;9.40;99.90;;;;;;5016916;28;20049;-61
2023/12/17 03:51:06;;;;;;;9.00;4.55;;;9.40;99.90;;;;;;5032608;28;20045;-62
2023/12/17 03:53:31;;;;;;;10.85;4.65;;;9.40;99.90;;;;;;5033709;28;20049;-62
2023/12/17 03:55:57;;;;;;;15.88;5.65;;;9.40;99.90;;;;;;5033538;28;20125;-62
2023/12/17 03:58:23;;;;;;;12.25;4.93;;;9.30;99.90;;;;;;5032191;28;20805;-61
2023/12/17 04:00:48;;;;;;;12.43;5.40;;;9.30;99.90;;;;;;5033266;28;20033;-61
2023/12/17 04:03:14;;;;;;;15.00;4.30;;;9.30;99.90;;;;;;5016962;28;20037;-61
2023/12/17 04:05:39;;;;;;;9.77;5.68;;;9.30;99.90;;;;;;5030554;28;20048;-61
2023/12/17 04:08:07;;;;;;;10.35;4.90;;;9.30;99.90;;;;;;5052945;28;20052;-61
2023/12/17 04:10:33;;;;;;;9.20;4.35;;;9.30;99.90;;;;;;5029743;28;20048;-61
2023/12/17 04:12:59;;;;;;;8.93;5.28;;;9.30;99.90;;;;;;5032437;28;20049;-61
2023/12/17 04:15:24;;;;;;;14.80;4.63;;;9.30;99.90;;;;;;5032665;28;20074;-61
2023/12/17 04:17:50;;;;;;;11.63;5.05;;;9.20;99.90;;;;;;5032571;28;20126;-61
2023/12/17 04:20:16;;;;;;;11.18;5.18;;;9.20;99.90;;;;;;5001704;28;20044;-62
2023/12/17 04:22:41;;;;;;;9.40;4.93;;;9.20;99.90;;;;;;5035752;28;20074;-61
2023/12/17 04:25:10;;;;;;;13.10;5.25;;;9.20;99.90;;;;;;5034373;28;20406;-61
2023/12/17 04:27:36;;;;;;;14.98;5.93;;;9.10;99.90;;;;;;5035216;28;20489;-61
2023/12/17 04:30:01;;;;;;;11.70;6.07;;;9.10;99.90;;;;;;5036106;28;20075;-61
2023/12/17 04:32:27;;;;;;;11.15;4.72;;;9.10;99.90;;;;;;5034041;28;20115;-61
2023/12/17 04:34:55;;;;;;;14.38;5.60;;;9.20;99.90;;;;;;5015128;28;20049;-61
2023/12/17 04:37:24;;;;;;;9.63;4.45;;;9.10;99.90;;;;;;4999497;28;20099;-61
2023/12/17 04:39:50;;;;;;;9.60;4.68;;;9.10;99.90;;;;;;5015045;28;20041;-61
2023/12/17 04:42:16;;;;;;;13.48;5.32;;;9.10;99.90;;;;;;5015797;28;20056;-61
2023/12/17 04:44:42;;;;;;;11.55;5.55;;;9.10;99.90;;;;;;5019640;28;20052;-61
2023/12/17 04:47:08;;;;;;;10.80;5.55;;;9.10;99.90;;;;;;5024194;28;20433;-61
2023/12/17 04:49:33;;;;;;;12.00;5.35;;;9.10;99.90;;;;;;5032204;28;20387;-61
2023/12/17 04:51:59;;;;;;;13.65;5.72;;;9.10;99.90;;;;;;5032362;28;20487;-61
2023/12/17 04:54:25;;;;;;;10.68;5.40;;;9.10;99.90;;;;;;5033514;28;20561;-61
2023/12/17 04:56:54;;;;;;;11.70;5.28;;;9.10;99.90;;;;;;5035449;28;20045;-61
2023/12/17 04:59:20;;;;;;;9.57;4.88;;;9.10;99.90;;;;;;5018731;28;20055;-61
2023/12/17 05:01:46;;;;;;;10.93;5.28;;;9.10;99.90;;;;;;5033878;28;20045;-61
2023/12/17 05:04:12;;;;;;;10.75;5.75;;;9.10;99.90;;;;;;5035327;28;20049;-61
2023/12/17 05:06:37;;;;;;;10.35;5.13;;;9.00;99.90;;;;;;5018583;28;20123;-61
2023/12/17 05:09:04;;;;;;;12.98;5.65;;;9.10;99.90;;;;;;5051401;28;20505;-62
2023/12/17 05:11:29;;;;;;;11.43;6.22;;;9.00;99.90;;;;;;5034952;28;20497;-61
2023/12/17 05:13:55;;;;;;;11.98;7.28;;;9.00;99.90;;;;;;5051927;28;20068;-61
2023/12/17 05:16:21;;;;;;;12.10;5.78;;;9.00;99.90;;;;;;5050278;28;20120;-61
2023/12/17 05:18:46;;;;;;;11.55;5.85;;;9.10;99.90;;;;;;5051347;28;20041;-61
2023/12/17 05:21:12;;;;;;;15.70;6.13;;;9.10;99.90;;;;;;5034618;28;20041;-61
2023/12/17 05:23:37;;;;;;;13.27;5.25;;;9.10;99.90;;;;;;5003770;28;20041;-61
2023/12/17 05:26:03;;;;;;;11.18;5.85;;;9.10;99.90;;;;;;5032854;28;20052;-61
2023/12/17 05:28:29;;;;;;;12.00;5.93;;;9.10;99.90;;;;;;5015020;28;20045;-61
2023/12/17 05:30:54;;;;;;;13.43;6.22;;;9.10;99.90;;;;;;5015132;28;20372;-61
2023/12/17 05:33:20;;;;;;;13.77;7.45;;;9.10;99.90;;;;;;5031330;28;20510;-61
2023/12/17 05:35:46;;;;;;;14.77;6.50;;;9.00;99.90;;;;;;5031171;28;20045;-61
2023/12/17 05:38:11;;;;;;;14.70;6.97;;;9.10;99.90;;;;;;5030347;28;20041;-61
2023/12/17 05:40:37;;;;;;;10.25;6.10;;;9.10;99.90;;;;;;5031250;28;20050;-61
2023/12/17 05:43:03;;;;;;;9.40;5.55;;;9.10;99.90;;;;;;5031153;28;20047;-61
2023/12/17 05:45:30;;;;;;;15.35;7.05;;;9.20;99.90;;;;;;5015044;28;20037;-61
2023/12/17 05:47:56;;;;;;;13.65;7.05;;;9.20;99.90;;;;;;5015509;28;20044;-61
2023/12/17 05:50:23;;;;;;;14.23;6.38;;;9.20;99.90;;;;;;5033594;28;20048;-61
2023/12/17 05:52:49;;;;;;;17.67;6.95;;;9.20;99.90;;;;;;5034194;28;20040;-61
2023/12/17 05:55:15;;;;;;;11.75;7.60;;;9.10;99.90;;;;;;5014337;28;20406;-61
2023/12/17 05:57:42;;;;;;;12.75;7.80;;;9.10;99.90;;;;;;5014026;28;20399;-61
2023/12/17 06:00:09;;;;;;;15.13;7.50;;;9.10;99.90;;;;;;5032407;28;20041;-60
2023/12/17 06:02:34;;;;;;;18.42;8.32;;;9.10;99.90;;;;;;5027418;28;20398;-61
2023/12/17 06:05:00;;;;;;;14.60;7.70;;;9.20;99.90;;;;;;5050229;28;20051;-61
2023/12/17 06:07:26;;;;;;;18.13;8.82;;;9.20;99.90;;;;;;5050669;28;20378;-60
2023/12/17 06:09:51;;;;;;;13.95;7.32;;;9.20;99.90;;;;;;5017633;28;20064;-61
2023/12/17 06:12:17;;;;;;;19.08;7.57;;;9.20;99.90;;;;;;5033781;28;20045;-60
2023/12/17 06:14:43;;;;;;;15.82;7.65;;;9.20;99.90;;;;;;5017798;28;20042;-61
2023/12/17 06:17:10;;;;;;;13.60;8.00;;;9.20;99.90;;;;;;5030774;28;20037;-61
2023/12/17 06:19:37;;;;;;;13.77;7.07;;;9.20;99.90;;;;;;5013527;28;20091;-61
2023/12/17 06:22:03;;;;;;;14.00;6.82;;;9.20;99.90;;;;;;5014633;28;20037;-61
2023/12/17 06:24:29;;;;;;;10.40;7.05;;;9.20;99.90;;;;;;4998126;28;20038;-61
2023/12/17 06:26:55;;;;;;;16.67;7.35;;;9.20;99.90;;;;;;5053113;28;20033;-61
2023/12/17 06:29:21;;;;;;;14.95;6.53;;;9.20;99.90;;;;;;5038051;28;20049;-61
2023/12/17 06:31:46;;;;;;;12.32;6.80;;;9.20;99.90;;;;;;5037903;28;20037;-61
2023/12/17 06:34:13;;;;;;;13.35;7.80;;;9.20;99.90;;;;;;5022239;28;20051;-61
2023/12/17 06:36:39;;;;;;;11.27;6.70;;;9.20;99.90;;;;;;5018207;28;20132;-60
2023/12/17 06:39:09;;;;;;;18.10;7.50;;;9.20;99.90;;;;;;5054192;28;20589;-61
2023/12/17 06:41:36;;;;;;;16.02;8.32;;;9.20;99.90;;;;;;5037801;28;20033;-60
2023/12/17 06:44:01;;;;;;;15.15;7.90;;;9.20;99.90;;;;;;5055763;28;20115;-61
2023/12/17 06:46:27;;;;;;;18.42;8.85;;;9.20;99.90;;;;;;5053735;28;20065;-61
2023/12/17 06:48:53;;;;;;;17.30;9.35;;;9.20;99.90;;;;;;5053975;28;20048;-60
2023/12/17 06:51:19;;;;;;;16.70;8.32;;;9.10;99.90;;;;;;5003190;28;20041;-61
2023/12/17 06:53:44;;;;;;;16.38;9.00;;;9.10;99.90;;;;;;5007340;28;20057;-61
2023/12/17 06:56:10;;;;;;;15.77;7.75;;;9.10;99.90;;;;;;5027128;28;20056;-61
2023/12/17 06:58:36;;;;;;;13.65;7.13;;;9.20;99.90;;;;;;5035275;28;20107;-60
2023/12/17 07:01:02;;;;;;;16.52;8.23;;;9.10;99.90;;;;;;5021669;28;20483;-61
2023/12/17 07:03:27;;;;;;;15.60;6.88;;;9.20;99.90;;;;;;5033916;28;20414;-61
2023/12/17 07:05:53;;;;;;;15.27;7.53;;;9.20;99.90;;;;;;5001038;28;20065;-60
2023/12/17 07:08:19;;;;;;;15.85;7.28;;;9.20;99.90;;;;;;5018587;28;20052;-61
2023/12/17 07:10:45;;;;;;;15.93;7.75;;;9.20;99.90;;;;;;5033330;28;20026;-61
2023/12/17 07:13:11;;;;;;;15.40;7.40;;;9.10;99.90;;;;;;5017692;28;20124;-61
2023/12/17 07:15:36;;;;;;;14.88;6.57;;;9.20;99.90;;;;;;5016403;28;20112;-61
2023/12/17 07:18:02;;;;;;;15.02;7.53;;;9.20;99.90;;;;;;5017318;28;20083;-61
2023/12/17 07:20:28;;;;;;;16.83;6.82;;;9.20;99.90;;;;;;5036731;28;20041;-61
2023/12/17 07:22:53;;;;;;;16.45;7.68;;;9.20;99.90;;;;;;5036384;28;20063;-60
2023/12/17 07:25:20;;;;;;;17.20;7.30;;;9.20;99.90;;;;;;5053555;28;20512;-60
2023/12/17 07:27:45;;;;;;;13.90;7.70;;;9.20;99.90;;;;;;5020276;28;20045;-61
2023/12/17 07:30:12;;;;;;;16.23;7.63;;;9.20;99.90;;;;;;5048915;28;20047;-61
2023/12/17 07:32:37;;;;;;;14.35;8.10;;;9.20;99.90;;;;;;5017145;28;20088;-61
2023/12/17 07:35:06;;;;;;;18.13;7.93;;;9.20;99.90;;;;;;5033824;28;20069;-61
2023/12/17 07:37:32;;;;;;;14.13;6.53;;;9.20;99.90;;;;;;5032184;28;20111;-61
2023/12/17 07:39:58;;;;;;;15.85;7.57;;;9.20;99.90;;;;;;5017366;28;20041;-61
2023/12/17 07:42:23;;;;;;;13.38;6.50;;;9.20;99.90;;;;;;5037519;28;20036;-60
2023/12/17 07:44:49;;;;;;;12.95;6.30;;;9.20;99.90;;;;;;5038966;28;20136;-60
2023/12/17 07:47:15;;;;;;;17.58;7.25;;;9.20;99.90;;;;;;5036132;28;20493;-61
2023/12/17 07:49:40;;;;;;;15.55;8.27;;;9.20;99.90;;;;;;5037612;28;20041;-61
2023/12/17 07:52:06;;;;;;;20.52;9.55;;;9.20;99.90;;;;;;5048703;28;20126;-60
2023/12/17 07:54:32;;;;;;;23.27;10.50;;;9.20;99.90;;;;;;5050875;28;20367;-60
2023/12/17 07:56:58;;;;;;;21.55;11.27;;;9.20;99.90;;;;;;5026268;28;20052;-60
2023/12/17 07:59:25;;;;;;;18.70;10.88;;;9.20;99.90;;;;;;5018399;28;20033;-61
2023/12/17 08:01:51;;;;;;;23.02;12.93;;;9.10;99.90;;;;;;5016302;28;20037;-61
2023/12/17 08:04:18;;;;;;;21.77;12.70;;;9.10;99.90;;;;;;5029599;28;20372;-61
2023/12/17 08:06:44;;;;;;;19.98;12.20;;;9.10;99.90;;;;;;5020466;28;20048;-61
2023/12/17 08:09:10;;;;;;;22.10;12.95;;;9.10;99.90;;;;;;5031569;28;20048;-61
2023/12/17 08:11:36;;;;;;;25.35;14.65;;;9.10;99.90;;;;;;5031257;28;20036;-62
2023/12/17 08:14:03;;;;;;;27.65;12.70;;;9.10;99.90;;;;;;5031973;28;20561;-62
2023/12/17 08:16:29;;;;;;;21.20;10.27;;;9.10;99.90;;;;;;5019367;28;20396;-62
2023/12/17 08:18:55;;;;;;;19.38;10.68;;;9.10;99.90;;;;;;5014741;28;20045;-61
2023/12/17 08:21:21;;;;;;;23.70;12.40;;;9.10;99.90;;;;;;5029720;28;20048;-62
2023/12/17 08:23:46;;;;;;;24.20;10.20;;;9.00;99.90;;;;;;5013992;28;20045;-62
2023/12/17 08:26:12;;;;;;;20.90;10.32;;;9.00;99.90;;;;;;5025728;28;20504;-62
2023/12/17 08:28:38;;;;;;;24.27;10.30;;;9.00;99.90;;;;;;5017251;28;20048;-61
2023/12/17 08:31:09;;;;;;;19.00;8.63;;;9.00;99.90;;;;;;5023132;28;20769;-61
2023/12/17 08:33:38;;;;;;;21.25;8.95;;;9.00;99.90;;;;;;5013714;28;20052;-61
2023/12/17 08:36:04;;;;;;;14.15;9.15;;;9.00;99.90;;;;;;5022229;28;20041;-61
2023/12/17 08:38:30;;;;;;;16.67;9.60;;;9.00;99.90;;;;;;5026378;28;20033;-62
2023/12/17 08:40:56;;;;;;;15.00;8.77;;;8.90;99.90;;;;;;5025266;28;20540;-62
2023/12/17 08:43:22;;;;;;;14.27;6.65;;;8.90;99.90;;;;;;5013065;28;20054;-62
2023/12/17 08:45:49;;;;;;;13.45;6.57;;;8.90;99.90;;;;;;5013345;28;20051;-62
2023/12/17 08:48:15;;;;;;;18.83;8.60;;;8.90;99.90;;;;;;5007672;28;20049;-62
2023/12/17 08:50:40;;;;;;;19.08;10.00;;;8.90;99.90;;;;;;5011889;28;20065;-62
2023/12/17 08:53:06;;;;;;;23.75;10.25;;;8.90;99.90;;;;;;5012233;28;20144;-61
2023/12/17 08:55:31;;;;;;;21.30;9.52;;;8.90;99.90;;;;;;5013904;28;20038;-61
2023/12/17 08:57:57;;;;;;;21.08;9.43;;;8.90;99.90;;;;;;5030982;28;20040;-62
2023/12/17 09:00:23;;;;;;;17.67;9.15;;;8.90;99.90;;;;;;5031538;28;20049;-61
2023/12/17 09:02:49;;;;;;;21.45;9.35;;;8.90;99.90;;;;;;5038913;28;20124;-61
2023/12/17 09:05:14;;;;;;;27.65;10.23;;;8.90;99.90;;;;;;5012305;28;20099;-61
2023/12/17 09:07:40;;;;;;;18.13;8.00;;;8.90;99.90;;;;;;5025714;28;20044;-60
2023/12/17 09:10:06;;;;;;;19.70;9.25;;;9.00;99.90;;;;;;5018930;28;20048;-60
2023/12/17 09:12:32;;;;;;;25.52;9.73;;;9.00;99.90;;;;;;5014764;28;20128;-60
2023/12/17 09:14:58;;;;;;;23.42;9.60;;;9.00;99.90;;;;;;5030012;28;20059;-60
2023/12/17 09:17:25;;;;;;;20.05;9.00;;;9.00;99.90;;;;;;5017455;28;20049;-61
2023/12/17 09:19:50;;;;;;;18.52;8.73;;;9.10;99.90;;;;;;5012825;28;20050;-60
2023/12/17 09:22:17;;;;;;;20.52;10.38;;;9.10;99.90;;;;;;5020961;28;20048;-60
2023/12/17 09:24:43;;;;;;;24.17;11.25;;;9.10;99.90;;;;;;5018452;28;20041;-60
2023/12/17 09:27:08;;;;;;;22.42;9.90;;;9.10;99.90;;;;;;5030931;28;20041;-60
2023/12/17 09:29:34;;;;;;;25.58;9.85;;;9.10;99.90;;;;;;5015439;28;20049;-59
2023/12/17 09:32:00;;;;;;;18.08;8.13;;;9.20;99.90;;;;;;5028630;28;20045;-61
2023/12/17 09:34:25;;;;;;;19.40;9.80;;;9.20;99.90;;;;;;5047643;28;20335;-58
2023/12/17 09:36:51;;;;;;;26.50;9.38;;;9.20;99.90;;;;;;5039358;28;20045;-61
2023/12/17 09:39:16;;;;;;;16.42;9.02;;;9.20;99.90;;;;;;5012709;28;20042;-61
2023/12/17 09:41:42;;;;;;;22.08;9.48;;;9.30;99.90;;;;;;5013986;28;20041;-61
2023/12/17 09:44:08;;;;;;;22.50;8.07;;;9.30;99.90;;;;;;5012771;28;20052;-61
2023/12/17 09:46:35;;;;;;;20.45;9.73;;;9.30;99.90;;;;;;5031296;28;20044;-61
2023/12/17 09:49:01;;;;;;;17.23;8.35;;;9.30;99.90;;;;;;5014432;28;20124;-61
2023/12/17 09:51:28;;;;;;;25.33;9.45;;;9.30;99.90;;;;;;5013731;28;20044;-61
2023/12/17 09:53:57;;;;;;;33.53;10.82;;;9.30;99.90;;;;;;5007543;28;20050;-60
2023/12/17 09:56:23;;;;;;;18.23;8.75;;;9.30;99.90;;;;;;4993695;28;20053;-61
2023/12/17 09:58:49;;;;;;;21.63;9.68;;;9.30;99.90;;;;;;4994958;28;20038;-61
2023/12/17 10:01:15;;;;;;;17.63;8.88;;;9.30;99.90;;;;;;4994271;28;20038;-61
2023/12/17 10:03:40;;;;;;;21.13;9.38;;;9.30;99.90;;;;;;4994152;28;20088;-61
2023/12/17 10:06:06;;;;;;;24.73;9.98;;;9.30;99.90;;;;;;4994985;28;20050;-61
2023/12/17 10:08:33;;;;;;;24.08;10.15;;;9.30;99.90;;;;;;4994301;28;20121;-61
2023/12/17 10:10:59;;;;;;;19.63;9.70;;;9.30;99.90;;;;;;4994025;28;20046;-61
2023/12/17 10:13:26;;;;;;;26.38;9.30;;;9.30;99.90;;;;;;4994656;28;20088;-61
2023/12/17 10:15:56;;;;;;;20.85;9.65;;;9.30;99.90;;;;;;5012168;28;20450;-61
2023/12/17 10:18:22;;;;;;;19.63;9.00;;;9.30;99.90;;;;;;4994002;28;20109;-61
2023/12/17 10:20:49;;;;;;;19.27;9.18;;;9.30;99.90;;;;;;4978377;28;20100;-60
2023/12/17 10:23:15;;;;;;;17.30;8.13;;;9.30;99.90;;;;;;4995002;28;20088;-61
2023/12/17 10:25:41;;;;;;;19.15;10.48;;;9.30;99.90;;;;;;4993674;28;20053;-61
2023/12/17 10:28:10;;;;;;;22.42;10.38;;;9.30;99.90;;;;;;4994750;28;20049;-61
2023/12/17 10:30:36;;;;;;;18.38;9.63;;;9.30;99.90;;;;;;4994535;28;20068;-61
2023/12/17 10:33:03;;;;;;;18.52;10.02;;;9.30;99.90;;;;;;4994180;28;20391;-62
2023/12/17 10:35:34;;;;;;;20.38;11.02;;;9.30;99.90;;;;;;4994235;28;20042;-62
2023/12/17 10:38:02;;;;;;;17.70;9.93;;;9.30;99.90;;;;;;4994548;28;20042;-61
2023/12/17 10:40:29;;;;;;;20.98;10.40;;;9.30;99.90;;;;;;4993546;28;20050;-61
2023/12/17 10:42:59;;;;;;;22.35;10.38;;;9.30;99.90;;;;;;4994677;28;20532;-61
2023/12/17 10:45:26;;;;;;;23.25;9.93;;;9.30;99.90;;;;;;4994391;28;20053;-61
2023/12/17 10:47:56;;;;;;;22.80;12.77;;;9.30;99.90;;;;;;4994144;28;20049;-61
2023/12/17 10:50:23;;;;;;;22.70;11.15;;;9.30;99.90;;;;;;4994249;28;20046;-61
2023/12/17 10:52:50;;;;;;;19.95;10.45;;;9.30;99.90;;;;;;4993721;28;20154;-61
2023/12/17 10:55:17;;;;;;;23.65;10.65;;;9.30;99.90;;;;;;5011663;28;20049;-61
2023/12/17 10:57:48;;;;;;;26.52;10.93;;;9.30;99.90;;;;;;5014035;28;20060;-61
2023/12/17 11:00:16;;;;;;;25.63;13.63;;;9.40;99.90;;;;;;5013294;28;20564;-61
2023/12/17 11:02:45;;;;;;;32.83;11.32;;;9.30;99.90;;;;;;4997399;28;20053;-62
2023/12/17 11:05:12;;;;;;;21.98;10.60;;;9.40;99.90;;;;;;5013891;28;20124;-61
2023/12/17 11:07:38;;;;;;;24.77;11.05;;;9.40;99.90;;;;;;5029195;28;20052;-61
2023/12/17 11:10:12;;;;;;;27.33;13.18;;;9.40;99.90;;;;;;5031662;28;20037;-61
2023/12/17 11:12:44;;;;;;;20.60;11.00;;;9.40;99.90;;;;;;5013750;28;20041;-62
2023/12/17 11:15:11;;;;;;;20.48;10.02;;;9.40;99.90;;;;;;5000099;28;20052;-61
2023/12/17 11:17:38;;;;;;;29.95;11.07;;;9.40;99.90;;;;;;5017313;28;20459;-61
2023/12/17 11:20:04;;;;;;;18.52;10.52;;;9.50;99.90;;;;;;5017441;28;20042;-61
2023/12/17 11:22:37;;;;;;;19.55;9.57;;;9.50;99.90;;;;;;5015876;28;20087;-61
2023/12/17 11:25:04;;;;;;;25.73;10.57;;;9.50;99.90;;;;;;5017439;28;20172;-61
2023/12/17 11:27:31;;;;;;;21.13;8.93;;;9.50;99.90;;;;;;5016837;28;20049;-61
2023/12/17 11:29:57;;;;;;;21.45;9.15;;;9.50;99.90;;;;;;5016379;28;20077;-60
2023/12/17 11:32:27;;;;;;;16.00;8.93;;;9.50;99.90;;;;;;5017195;28;20080;-60
2023/12/17 11:34:55;;;;;;;21.88;10.98;;;9.50;99.90;;;;;;5016801;28;20038;-61
2023/12/17 11:37:23;;;;;;;22.58;11.10;;;9.50;99.90;;;;;;5028869;28;20045;-62
2023/12/17 11:39:50;;;;;;;19.10;9.43;;;9.50;99.90;;;;;;5023442;28;20045;-61
2023/12/17 11:42:18;;;;;;;22.00;10.85;;;9.50;99.90;;;;;;5028826;28;20391;-62
2023/12/17 11:44:48;;;;;;;20.83;10.82;;;9.50;99.90;;;;;;5016787;28;20671;-60
2023/12/17 11:47:16;;;;;;;21.10;9.50;;;9.50;99.90;;;;;;5021740;28;20052;-61
2023/12/17 11:49:42;;;;;;;20.98;10.07;;;9.50;99.90;;;;;;5028704;28;20080;-60
2023/12/17 11:52:18;;;;;;;21.63;9.68;;;9.50;99.90;;;;;;5033705;28;20063;-60
2023/12/17 11:54:44;;;;;;;22.85;10.75;;;9.40;99.90;;;;;;5019273;28;20061;-60
2023/12/17 11:57:22;;;;;;;17.38;10.40;;;9.40;99.90;;;;;;4999964;28;20069;-60
2023/12/17 11:59:49;;;;;;;23.15;9.38;;;9.50;99.90;;;;;;5013310;28;20041;-60
2023/12/17 12:02:19;;;;;;;21.02;8.63;;;9.40;99.90;;;;;;4983148;28;20503;-60
2023/12/17 12:04:46;;;;;;;20.35;9.68;;;9.40;99.90;;;;;;5007027;28;20092;-59
2023/12/17 12:07:18;;;;;;;19.30;8.98;;;9.50;99.90;;;;;;5010180;28;20053;-60
2023/12/17 12:09:48;;;;;;;19.35;9.32;;;9.50;99.90;;;;;;5009885;28;20053;-60
2023/12/17 12:12:24;;;;;;;17.92;9.55;;;9.50;99.90;;;;;;4993868;28;20049;-59
2023/12/17 12:14:50;;;;;;;18.90;9.32;;;9.50;99.90;;;;;;4994136;28;20570;-59
2023/12/17 12:17:35;;;;;;;24.20;10.50;;;9.50;99.90;;;;;;5010571;28;20099;-59
2023/12/17 12:20:01;;;;;;;18.25;10.27;;;9.50;99.90;;;;;;4997469;28;20088;-59
2023/12/17 12:22:28;;;;;;;30.70;10.32;;;9.50;99.90;;;;;;5006507;28;20724;-59
2023/12/17 12:24:55;;;;;;;20.15;11.25;;;9.40;99.90;;;;;;5011601;28;20052;-60
2023/12/17 12:27:21;;;;;;;18.55;10.55;;;9.40;99.90;;;;;;5007673;28;20053;-60
2023/12/17 12:29:48;;;;;;;21.38;10.38;;;9.40;99.90;;;;;;4997805;28;20409;-60
2023/12/17 12:32:34;;;;;;;19.70;10.80;;;9.40;99.90;;;;;;5007427;28;20158;-60
2023/12/17 12:35:00;;;;;;;18.25;10.05;;;9.40;99.90;;;;;;5006033;28;20562;-60
2023/12/17 12:37:36;;;;;;;19.13;10.98;;;9.40;99.90;;;;;;5028948;28;20045;-60
2023/12/17 12:40:04;;;;;;;20.83;10.25;;;9.40;99.90;;;;;;4988926;28;20402;-60
2023/12/17 12:42:31;;;;;;;19.45;10.63;;;9.40;99.90;;;;;;5012471;28;20107;-60